Time;durP1;ratioP1;P1;durP2;ratioP2;P2;SDS_P1;SDS_P2;PMS_P1;PMS_P2;Temp;Humidity;BMP_temperature;BMP_pressure;BME280_temperature;BME280_humidity;BME280_pressure;Samples;Min_cycle;Max_cycle;Signal;HPM_P1;HPM_P2
2023/12/04 00:00:23;;;;;;;;;18.00;11.50;;;;;8.17;71.83;100370.59;2089195;28;46448;-52
2023/12/04 00:01:24;;;;;;;;;10.00;8.25;;;;;8.18;71.61;100360.88;2088903;28;46162;-53
2023/12/04 00:02:24;;;;;;;;;10.25;10.00;;;;;8.18;71.85;100358.25;2088989;28;46546;-51
2023/12/04 00:03:24;;;;;;;;;13.25;12.75;;;;;8.18;71.62;100364.41;2088967;28;46099;-50
2023/12/04 00:04:25;;;;;;;;;7.00;6.25;;;;;8.18;71.74;100352.97;2083381;28;46505;-51
2023/12/04 00:05:25;;;;;;;;;11.25;11.25;;;;;8.20;71.86;100351.16;2088664;28;46178;-54
2023/12/04 00:06:26;;;;;;;;;14.25;11.50;;;;;8.18;71.37;100348.53;2088192;28;46604;-50
2023/12/04 00:07:26;;;;;;;;;10.25;10.00;;;;;8.18;71.79;100345.91;2088913;28;45177;-52
2023/12/04 00:08:26;;;;;;;;;10.00;9.75;;;;;8.19;72.04;100342.34;2087678;28;45972;-50
2023/12/04 00:09:27;;;;;;;;;11.50;11.50;;;;;8.19;71.89;100334.44;2088918;28;46601;-48
2023/12/04 00:10:27;;;;;;;;;10.75;10.00;;;;;8.20;71.71;100335.28;2089047;28;46200;-51
2023/12/04 00:11:27;;;;;;;;;12.00;10.00;;;;;8.19;71.29;100330.91;2089215;28;46900;-49
2023/12/04 00:12:28;;;;;;;;;8.00;8.00;;;;;8.19;71.06;100323.84;2089023;28;46177;-50
2023/12/04 00:13:28;;;;;;;;;13.00;9.00;;;;;8.19;71.43;100323.84;2089457;28;46826;-54
2023/12/04 00:14:28;;;;;;;;;11.00;11.00;;;;;8.19;71.86;100323.84;2089164;28;46421;-50
2023/12/04 00:15:29;;;;;;;;;10.00;10.00;;;;;8.20;71.99;100327.38;2089005;28;45609;-50
2023/12/04 00:16:29;;;;;;;;;10.50;9.75;;;;;8.21;71.41;100326.47;2087582;28;45198;-51
2023/12/04 00:17:30;;;;;;;;;11.00;11.00;;;;;8.19;71.57;100313.28;2079867;28;46656;-51
2023/12/04 00:18:30;;;;;;;;;11.00;10.00;;;;;8.21;71.88;100318.53;2088964;28;46325;-53
2023/12/04 00:19:30;;;;;;;;;9.25;8.75;;;;;8.22;71.92;100312.34;2089572;28;46555;-52
2023/12/04 00:20:31;;;;;;;;;9.25;9.25;;;;;8.23;71.65;100299.09;2089028;28;46520;-47
2023/12/04 00:21:31;;;;;;;;;11.00;9.25;;;;;8.24;71.24;100305.25;2084375;28;46568;-54
2023/12/04 00:22:31;;;;;;;;;11.00;8.00;;;;;8.22;70.90;100301.78;2082326;28;46390;-52
2023/12/04 00:23:32;;;;;;;;;10.75;10.75;;;;;8.19;71.30;100300.06;2088902;28;46976;-53
2023/12/04 00:24:32;;;;;;;;;9.00;8.50;;;;;8.19;71.62;100302.69;2087173;28;46271;-53
2023/12/04 00:25:33;;;;;;;;;9.00;9.00;;;;;8.16;71.70;100301.91;2087596;28;46256;-52
2023/12/04 00:26:33;;;;;;;;;8.50;8.50;;;;;8.19;71.59;100297.41;2089035;28;47604;-52
2023/12/04 00:27:33;;;;;;;;;9.00;9.00;;;;;8.20;71.52;100304.44;2088946;28;46605;-53
2023/12/04 00:28:37;;;;;;;;;11.00;9.75;;;;;8.20;71.93;100307.09;2088757;28;46777;-50
2023/12/04 00:29:37;;;;;;;;;7.40;7.40;;;;;8.19;71.72;100297.41;2088482;28;46677;-51
2023/12/04 00:30:37;;;;;;;;;4.00;4.00;;;;;8.21;71.92;100292.09;2089450;28;46292;-54
2023/12/04 00:31:38;;;;;;;;;11.00;9.25;;;;;8.21;72.40;100292.97;2088832;28;46591;-50
2023/12/04 00:32:38;;;;;;;;;5.67;5.67;;;;;8.22;72.25;100289.44;2088997;28;46392;-53
2023/12/04 00:33:38;;;;;;;;;9.00;9.00;;;;;8.22;72.12;100291.19;2089430;28;46586;-51
2023/12/04 00:34:39;;;;;;;;;9.25;8.00;;;;;8.24;72.41;100286.75;2089010;28;45666;-50
2023/12/04 00:35:39;;;;;;;;;9.25;8.75;;;;;8.24;72.36;100289.38;2087907;28;46556;-52
2023/12/04 00:36:39;;;;;;;;;10.75;10.75;;;;;8.25;72.51;100294.66;2086198;28;46526;-51
2023/12/04 00:37:40;;;;;;;;;11.25;10.00;;;;;8.26;72.66;100287.63;2084870;28;46654;-51
2023/12/04 00:38:40;;;;;;;;;7.50;6.25;;;;;8.26;72.42;100290.25;2089015;28;46298;-49
2023/12/04 00:39:40;;;;;;;;;10.50;9.50;;;;;8.26;72.48;100277.03;2088777;28;46014;-49
2023/12/04 00:40:41;;;;;;;;;11.50;10.00;;;;;8.26;72.40;100282.31;2088965;28;47214;-50
2023/12/04 00:41:41;;;;;;;;;8.00;8.00;;;;;8.26;72.46;100282.31;2089064;28;46618;-48
2023/12/04 00:42:41;;;;;;;;;9.50;8.25;;;;;8.26;72.84;100284.97;2088476;28;46430;-54
2023/12/04 00:43:42;;;;;;;;;8.25;8.25;;;;;8.27;72.74;100278.78;2088981;28;46819;-49
2023/12/04 00:44:42;;;;;;;;;8.75;8.00;;;;;8.27;72.79;100270.84;2089011;28;46638;-49
2023/12/04 00:45:42;;;;;;;;;11.00;10.00;;;;;8.28;72.96;100277.88;2088491;28;46227;-50
2023/12/04 00:46:43;;;;;;;;;9.00;8.50;;;;;8.29;72.68;100281.41;2088738;28;46282;-51
2023/12/04 00:47:43;;;;;;;;;9.25;9.00;;;;;8.28;72.49;100262.03;2088310;28;45639;-54
2023/12/04 00:48:43;;;;;;;;;8.00;8.00;;;;;8.30;72.73;100277.84;2089254;28;46513;-51
2023/12/04 00:49:44;;;;;;;;;10.50;8.75;;;;;8.30;72.62;100259.34;2088953;28;46751;-53
2023/12/04 00:50:44;;;;;;;;;9.25;9.25;;;;;8.29;72.97;100265.53;2088855;28;46310;-51
2023/12/04 00:51:44;;;;;;;;;8.50;8.00;;;;;8.29;72.82;100255.81;2088800;28;46778;-49
2023/12/04 00:52:44;;;;;;;;;10.50;10.00;;;;;8.29;72.88;100254.97;2088626;28;46519;-53
2023/12/04 00:53:45;;;;;;;;;11.00;10.00;;;;;8.30;73.02;100264.63;2088727;28;46987;-49
2023/12/04 00:54:45;;;;;;;;;10.50;9.00;;;;;8.29;72.96;100245.25;2082714;28;46655;-50
2023/12/04 00:55:45;;;;;;;;;9.75;8.25;;;;;8.28;73.04;100251.44;2088962;28;47138;-53
2023/12/04 00:56:46;;;;;;;;;9.00;9.00;;;;;8.28;73.07;100243.50;2088529;28;46276;-49
2023/12/04 00:57:46;;;;;;;;;8.75;8.50;;;;;8.30;73.13;100240.84;2088799;28;46651;-50
2023/12/04 00:58:47;;;;;;;;;8.00;8.00;;;;;8.36;73.45;100244.25;2088520;28;46765;-53
2023/12/04 00:59:47;;;;;;;;;9.00;9.00;;;;;8.35;73.34;100242.50;2088653;28;46219;-50
2023/12/04 01:00:48;;;;;;;;;10.50;9.50;;;;;8.38;73.23;100233.63;2088681;28;46531;-48
2023/12/04 01:01:49;;;;;;;;;9.00;9.00;;;;;8.33;72.94;100230.19;2088683;28;46744;-49
2023/12/04 01:02:49;;;;;;;;;9.00;9.00;;;;;8.40;72.90;100229.22;2088433;28;46491;-54
2023/12/04 01:03:50;;;;;;;;;10.25;9.00;;;;;8.41;72.77;100223.00;2087840;28;46529;-52
2023/12/04 01:04:50;;;;;;;;;8.00;7.50;;;;;8.42;72.89;100220.34;2071085;28;46194;-53
2023/12/04 01:05:51;;;;;;;;;12.75;8.75;;;;;8.44;73.00;100225.59;2079514;28;46514;-53
2023/12/04 01:06:52;;;;;;;;;10.25;9.25;;;;;8.46;73.20;100218.50;2081122;28;47066;-53
2023/12/04 01:07:52;;;;;;;;;9.00;9.00;;;;;8.47;73.19;100228.16;2088570;28;46801;-52
2023/12/04 01:08:54;;;;;;;;;11.00;11.00;;;;;8.47;72.99;100223.75;2088655;28;46187;-51
2023/12/04 01:09:54;;;;;;;;;8.20;8.00;;;;;8.46;72.99;100219.34;2088874;28;46729;-51
2023/12/04 01:10:55;;;;;;;;;12.50;9.50;;;;;8.48;72.89;100217.56;2088466;28;46815;-49
2023/12/04 01:11:55;;;;;;;;;9.00;9.00;;;;;8.50;72.99;100207.81;2074537;28;46745;-51
2023/12/04 01:12:55;;;;;;;;;9.00;8.50;;;;;8.52;72.91;100202.50;2079547;28;46266;-52
2023/12/04 01:13:56;;;;;;;;;9.00;9.00;;;;;8.52;73.04;100208.66;2087440;28;46116;-51
2023/12/04 01:14:56;;;;;;;;;8.00;7.50;;;;;8.54;72.93;100211.28;2088651;28;46648;-52
2023/12/04 01:15:56;;;;;;;;;10.50;10.50;;;;;8.51;72.80;100198.09;2088150;28;46379;-53
2023/12/04 01:16:56;;;;;;;;;9.00;9.00;;;;;8.53;72.89;100198.97;2088708;28;46292;-54
2023/12/04 01:17:57;;;;;;;;;9.25;9.25;;;;;8.46;73.05;100192.91;2088556;28;46586;-50
2023/12/04 01:18:57;;;;;;;;;10.00;9.50;;;;;8.53;73.07;100194.53;2087797;28;46653;-52
2023/12/04 01:19:57;;;;;;;;;5.50;5.50;;;;;8.54;72.68;100195.41;2088677;28;46581;-51
2023/12/04 01:20:58;;;;;;;;;11.00;7.50;;;;;8.54;72.84;100192.75;2088812;28;46122;-54
2023/12/04 01:21:58;;;;;;;;;9.75;8.50;;;;;8.55;72.85;100189.22;2088690;28;46584;-48
2023/12/04 01:22:58;;;;;;;;;11.00;9.50;;;;;8.55;72.64;100182.16;2088566;28;46259;-55
2023/12/04 01:23:59;;;;;;;;;6.50;6.50;;;;;8.55;72.56;100182.16;2088267;28;46959;-56
2023/12/04 01:24:59;;;;;;;;;10.00;9.00;;;;;8.56;72.34;100177.72;2088480;28;46638;-52
2023/12/04 01:25:59;;;;;;;;;8.50;8.00;;;;;8.53;72.90;100160.16;2088447;28;46661;-52
2023/12/04 01:27:00;;;;;;;;;8.00;8.00;;;;;8.55;72.80;100173.34;2086454;28;46715;-52
2023/12/04 01:28:00;;;;;;;;;10.25;10.25;;;;;8.58;72.80;100175.03;2087050;28;46261;-52
2023/12/04 01:29:00;;;;;;;;;9.75;7.50;;;;;8.55;72.62;100171.56;2088701;28;46265;-53
2023/12/04 01:30:01;;;;;;;;;8.25;8.25;;;;;8.55;72.98;100162.78;2088109;28;46724;-48
2023/12/04 01:31:02;;;;;;;;;10.80;10.80;;;;;8.55;72.97;100168.94;2088971;28;46808;-51
2023/12/04 01:32:02;;;;;;;;;5.00;5.00;;;;;8.58;72.96;100167.13;2088510;28;46673;-52
2023/12/04 01:33:02;;;;;;;;;7.00;6.00;;;;;8.57;72.67;100154.78;2088003;28;46423;-49
2023/12/04 01:34:03;;;;;;;;;4.50;4.00;;;;;8.57;72.81;100155.66;2088738;28;46218;-47
2023/12/04 01:35:04;;;;;;;;;11.75;10.00;;;;;8.58;72.81;100149.47;2088555;28;46655;-51
2023/12/04 01:36:05;;;;;;;;;9.20;9.20;;;;;8.57;72.72;100150.38;2088263;28;46313;-53
2023/12/04 01:37:05;;;;;;;;;8.25;8.25;;;;;8.59;72.82;100145.91;2088475;28;46287;-53
2023/12/04 01:38:06;;;;;;;;;9.75;9.75;;;;;8.59;72.41;100139.75;2088980;28;46373;-51
2023/12/04 01:39:06;;;;;;;;;8.25;8.25;;;;;8.59;72.52;100150.34;2078628;28;46368;-54
2023/12/04 01:40:07;;;;;;;;;11.50;9.25;;;;;8.59;72.79;100148.56;2079129;28;46691;-50
2023/12/04 01:41:07;;;;;;;;;9.60;8.40;;;;;8.59;72.83;100142.41;2078750;28;46481;-52
2023/12/04 01:42:08;;;;;;;;;9.00;7.25;;;;;8.61;72.33;100148.53;2079173;28;46235;-50
2023/12/04 01:43:08;;;;;;;;;10.00;10.00;;;;;8.61;72.37;100151.16;2088129;28;46382;-53
2023/12/04 01:44:08;;;;;;;;;8.75;7.25;;;;;8.60;72.54;100149.44;2088270;28;46489;-51
2023/12/04 01:45:09;;;;;;;;;6.25;6.00;;;;;8.61;72.46;100145.88;2085802;28;46451;-54
2023/12/04 01:46:10;;;;;;;;;8.75;6.00;;;;;8.59;72.52;100148.56;2084794;28;46182;-49
2023/12/04 01:47:11;;;;;;;;;10.80;8.80;;;;;8.59;72.59;100145.91;2088247;28;46756;-49
2023/12/04 01:48:14;;;;;;;;;8.75;8.75;;;;;8.60;72.53;100146.78;2088638;28;46443;-53
2023/12/04 01:49:14;;;;;;;;;7.20;6.00;;;;;8.60;72.70;100146.78;2087498;28;46466;-51
2023/12/04 01:50:15;;;;;;;;;9.50;7.25;;;;;8.60;72.46;100152.94;2087543;28;46227;-51
2023/12/04 01:51:17;;;;;;;;;8.00;8.00;;;;;8.61;72.46;100161.75;2088193;28;46382;-51
2023/12/04 01:52:18;;;;;;;;;8.80;7.80;;;;;8.60;72.23;100154.72;2088282;28;45131;-49
2023/12/04 01:53:19;;;;;;;;;7.25;6.25;;;;;8.60;72.15;100157.38;2088487;28;46779;-50
2023/12/04 01:54:19;;;;;;;;;8.25;7.25;;;;;8.59;72.39;100155.63;2088434;28;46626;-55
2023/12/04 01:55:21;;;;;;;;;8.00;5.50;;;;;8.59;72.67;100159.13;2088359;28;46094;-51
2023/12/04 01:56:22;;;;;;;;;8.20;8.20;;;;;8.61;72.89;100145.88;2088070;28;46343;-53
2023/12/04 01:57:22;;;;;;;;;9.50;8.25;;;;;8.61;72.77;100144.09;2087126;28;46887;-53
2023/12/04 01:58:23;;;;;;;;;8.25;8.25;;;;;8.61;72.76;100141.44;2088440;28;46479;-53
2023/12/04 01:59:25;;;;;;;;;9.25;8.50;;;;;8.63;72.78;100152.00;2087896;28;46376;-50
2023/12/04 02:00:26;;;;;;;;;11.60;9.00;;;;;8.62;72.82;100144.97;2088556;28;46609;-50
2023/12/04 02:01:27;;;;;;;;;9.40;7.60;;;;;8.62;72.74;100140.53;2086843;28;46504;-51
2023/12/04 02:02:28;;;;;;;;;7.80;7.80;;;;;8.64;72.96;100135.22;2086954;28;46828;-52
2023/12/04 02:03:29;;;;;;;;;9.00;8.40;;;;;8.64;73.10;100127.28;2085798;28;46979;-51
2023/12/04 02:04:31;;;;;;;;;9.00;9.00;;;;;8.66;73.03;100128.16;2087943;28;46399;-51
2023/12/04 02:05:34;;;;;;;;;10.40;9.20;;;;;8.66;73.01;100126.38;2084511;28;47024;-51
2023/12/04 02:06:35;;;;;;;;;9.40;8.60;;;;;8.67;73.37;100124.59;2084078;28;46997;-53
2023/12/04 02:07:36;;;;;;;;;5.75;5.75;;;;;8.67;73.32;100128.09;2087236;28;46293;-50
2023/12/04 02:08:37;;;;;;;;;7.00;7.00;;;;;8.67;73.49;100133.41;2087970;28;46827;-50
2023/12/04 02:09:37;;;;;;;;;8.75;8.75;;;;;8.68;73.37;100140.44;2085957;28;46178;-52
2023/12/04 02:10:38;;;;;;;;;8.00;8.00;;;;;8.67;73.47;100141.34;2088312;28;46385;-51
2023/12/04 02:11:40;;;;;;;;;8.60;8.20;;;;;8.68;73.11;100142.19;2088134;28;46442;-50
2023/12/04 02:12:40;;;;;;;;;9.00;7.20;;;;;8.68;73.07;100148.34;2088346;28;46430;-50
2023/12/04 02:13:40;;;;;;;;;9.00;9.00;;;;;8.68;73.24;100151.00;2087916;28;46178;-51
2023/12/04 02:14:41;;;;;;;;;10.25;10.25;;;;;8.69;73.31;100149.22;2088071;28;46535;-49
2023/12/04 02:15:41;;;;;;;;;9.50;9.00;;;;;8.69;73.17;100151.88;2086968;28;46621;-52
2023/12/04 02:16:43;;;;;;;;;6.75;6.75;;;;;8.68;73.25;100144.84;2087041;28;46368;-50
2023/12/04 02:17:44;;;;;;;;;8.40;7.20;;;;;8.68;73.42;100144.84;2086573;28;46168;-52
2023/12/04 02:18:45;;;;;;;;;10.20;8.20;;;;;8.66;73.68;100144.88;2084564;28;47261;-53
2023/12/04 02:19:45;;;;;;;;;10.00;9.00;;;;;8.66;73.48;100138.72;2088310;28;46950;-51
2023/12/04 02:20:45;;;;;;;;;8.25;8.00;;;;;8.65;73.67;100137.00;2083710;28;46188;-48
2023/12/04 02:21:46;;;;;;;;;10.25;8.00;;;;;8.65;73.78;100131.69;2084214;28;46702;-53
2023/12/04 02:22:46;;;;;;;;;6.75;6.00;;;;;8.64;73.67;100130.84;2087956;28;46561;-52
2023/12/04 02:23:52;;;;;;;;;7.00;7.00;;;;;8.63;73.99;100126.41;2087776;28;46720;-55
2023/12/04 02:24:52;;;;;;;;;10.20;10.00;;;;;8.63;73.98;100126.41;2087716;28;46369;-53
2023/12/04 02:26:00;;;;;;;;;9.00;7.25;;;;;8.65;73.89;100124.63;2088248;28;46834;-54
2023/12/04 02:27:16;;;;;;;;;10.40;9.00;;;;;8.66;74.37;100129.00;2087946;28;45215;-53
2023/12/04 02:28:18;;;;;;;;;7.60;7.60;;;;;8.67;74.34;100130.75;2070507;28;46534;-48
2023/12/04 02:29:37;;;;;;;;;9.00;8.00;;;;;8.67;74.40;100130.75;2071500;28;46285;-53
2023/12/04 02:30:39;;;;;;;;;5.00;3.00;;;;;8.66;74.26;100122.84;2088558;28;46170;-52
2023/12/04 02:31:41;;;;;;;;;9.20;8.80;;;;;8.68;74.22;100119.25;2088489;28;46600;-50
2023/12/04 02:32:47;;;;;;;;;9.20;7.20;;;;;8.67;74.38;100122.81;2088578;28;45730;-51
2023/12/04 02:33:49;;;;;;;;;6.80;6.80;;;;;8.66;74.42;100126.38;2088462;28;46333;-48
2023/12/04 02:34:53;;;;;;;;;9.40;9.40;;;;;8.66;74.43;100125.50;2088195;28;46771;-50
2023/12/04 02:35:55;;;;;;;;;6.20;6.20;;;;;8.65;74.43;100129.06;2088752;28;47013;-51
2023/12/04 02:36:57;;;;;;;;;8.60;8.20;;;;;8.65;74.59;100131.69;2084123;28;46551;-54
2023/12/04 02:37:59;;;;;;;;;9.40;8.60;;;;;8.66;74.79;100125.50;2086006;28;46451;-53
2023/12/04 02:39:00;;;;;;;;;6.80;6.80;;;;;8.66;74.63;100123.72;2083923;28;46628;-51
2023/12/04 02:40:02;;;;;;;;;11.25;10.00;;;;;8.68;74.78;100121.03;2087220;28;46734;-54
2023/12/04 02:41:03;;;;;;;;;9.40;7.60;;;;;8.69;74.83;100126.28;2086347;28;46534;-50
2023/12/04 02:42:03;;;;;;;;;10.25;7.25;;;;;8.70;74.98;100132.44;2070903;28;46837;-51
2023/12/04 02:43:03;;;;;;;;;10.25;9.00;;;;;8.71;74.81;100132.41;2070112;28;46142;-54
2023/12/04 02:44:04;;;;;;;;;7.25;7.25;;;;;8.71;74.98;100132.41;2087883;28;47198;-52
2023/12/04 02:45:05;;;;;;;;;7.75;7.75;;;;;8.70;74.96;100128.03;2085453;28;46287;-49
2023/12/04 02:46:05;;;;;;;;;8.50;6.00;;;;;8.70;74.80;100132.44;2074718;28;46757;-53
2023/12/04 02:47:05;;;;;;;;;9.00;9.00;;;;;8.70;75.04;100125.38;2079328;28;46250;-48
2023/12/04 02:48:06;;;;;;;;;10.50;10.50;;;;;8.69;75.18;100134.22;2088371;28;46241;-49
2023/12/04 02:49:07;;;;;;;;;10.00;9.00;;;;;8.70;75.13;100132.44;2087738;28;46794;-52
2023/12/04 02:50:07;;;;;;;;;6.00;6.00;;;;;8.70;75.29;100133.31;2095079;28;46156;-52
2023/12/04 02:51:08;;;;;;;;;5.00;5.00;;;;;8.71;75.43;100127.13;2095340;28;46811;-52
2023/12/04 02:52:08;;;;;;;;;6.00;6.00;;;;;8.74;75.30;100126.16;2088368;28;46002;-51
2023/12/04 02:53:08;;;;;;;;;9.25;9.25;;;;;8.75;75.21;100122.63;2088143;28;46524;-51
2023/12/04 02:54:09;;;;;;;;;10.00;6.50;;;;;8.74;75.48;100113.81;2085832;28;46566;-49
2023/12/04 02:55:09;;;;;;;;;12.25;12.25;;;;;8.76;75.26;100116.41;2084249;28;46466;-53
2023/12/04 02:56:10;;;;;;;;;9.00;9.00;;;;;8.76;75.58;100112.00;2087932;28;46614;-50
2023/12/04 02:57:10;;;;;;;;;9.80;8.60;;;;;8.77;75.45;100112.91;2069871;28;46542;-51
2023/12/04 02:58:11;;;;;;;;;8.00;8.00;;;;;8.77;75.43;100119.06;2068646;28;46279;-51
2023/12/04 02:59:11;;;;;;;;;6.25;6.25;;;;;8.73;75.34;100104.13;2088233;28;47031;-49
2023/12/04 03:00:12;;;;;;;;;9.00;9.00;;;;;8.72;75.41;100104.19;2087972;28;46561;-51
2023/12/04 03:01:12;;;;;;;;;9.00;9.00;;;;;8.72;75.62;100109.47;2070520;28;46470;-51
2023/12/04 03:02:12;;;;;;;;;8.50;8.50;;;;;8.73;75.58;100100.63;2061365;28;46805;-51
2023/12/04 03:03:12;;;;;;;;;8.50;8.50;;;;;8.72;75.48;100101.53;2087237;28;47049;-54
2023/12/04 03:04:13;;;;;;;;;9.50;9.00;;;;;8.72;75.64;100093.59;2087263;28;47250;-51
2023/12/04 03:05:13;;;;;;;;;7.00;7.00;;;;;8.72;75.73;100093.59;2083652;28;46585;-50
2023/12/04 03:06:16;;;;;;;;;5.00;5.00;;;;;8.72;75.77;100089.19;2087930;28;46203;-51
2023/12/04 03:07:19;;;;;;;;;9.00;8.00;;;;;8.73;75.88;100082.09;2087904;28;46509;-51
2023/12/04 03:08:20;;;;;;;;;8.00;7.00;;;;;8.73;75.98;100082.09;2088588;28;46600;-52
2023/12/04 03:09:20;;;;;;;;;9.50;8.50;;;;;8.73;75.75;100084.75;2089367;28;46467;-53
2023/12/04 03:10:20;;;;;;;;;10.00;6.75;;;;;8.74;75.74;100086.50;2087155;28;46121;-52
2023/12/04 03:11:21;;;;;;;;;7.25;5.50;;;;;8.72;75.86;100072.44;2087784;28;46758;-54
2023/12/04 03:12:21;;;;;;;;;9.00;9.00;;;;;8.71;75.84;100068.91;2087833;28;46250;-51
2023/12/04 03:13:21;;;;;;;;;8.75;8.50;;;;;8.71;76.04;100062.75;2086817;28;45074;-51
2023/12/04 03:14:22;;;;;;;;;9.50;7.75;;;;;8.72;75.93;100069.78;2087302;28;46139;-51
2023/12/04 03:15:22;;;;;;;;;9.00;5.25;;;;;8.73;76.16;100066.22;2089056;28;46276;-51
2023/12/04 03:16:22;;;;;;;;;10.75;9.25;;;;;8.72;76.19;100065.38;2083524;28;46468;-52
2023/12/04 03:17:22;;;;;;;;;9.25;6.50;;;;;8.71;76.16;100058.34;2087013;28;46948;-49
2023/12/04 03:18:25;;;;;;;;;9.75;7.25;;;;;8.72;76.10;100060.06;2088435;28;46304;-52
2023/12/04 03:19:25;;;;;;;;;7.80;7.60;;;;;8.75;76.20;100053.84;2088195;28;46939;-50
2023/12/04 03:20:25;;;;;;;;;7.00;6.50;;;;;8.73;76.39;100060.94;2087409;28;46218;-52
2023/12/04 03:21:26;;;;;;;;;9.00;9.00;;;;;8.73;76.35;100058.31;2081442;28;46500;-50
2023/12/04 03:22:26;;;;;;;;;7.75;7.75;;;;;8.74;76.56;100060.91;2088816;28;46575;-50
2023/12/04 03:23:26;;;;;;;;;7.00;6.00;;;;;8.74;76.32;100052.09;2088736;28;46485;-48
2023/12/04 03:24:27;;;;;;;;;5.50;5.50;;;;;8.74;76.47;100045.03;2089849;28;46099;-52
2023/12/04 03:25:27;;;;;;;;;11.00;10.00;;;;;8.74;76.47;100045.03;2087646;28;46471;-48
2023/12/04 03:26:28;;;;;;;;;11.75;8.00;;;;;8.72;76.51;100048.63;2089291;28;46683;-49
2023/12/04 03:27:28;;;;;;;;;8.40;6.00;;;;;8.76;76.74;100052.94;2085414;28;46314;-49
2023/12/04 03:28:29;;;;;;;;;7.00;6.75;;;;;8.76;76.51;100045.00;2086098;28;46773;-51
2023/12/04 03:29:29;;;;;;;;;7.50;6.00;;;;;8.75;76.20;100045.91;2088184;28;46822;-50
2023/12/04 03:30:29;;;;;;;;;8.75;7.75;;;;;8.75;76.30;100043.25;2089723;28;46340;-51
2023/12/04 03:31:31;;;;;;;;;8.00;8.00;;;;;8.76;76.42;100039.69;2089348;28;46519;-54
2023/12/04 03:32:31;;;;;;;;;7.00;6.80;;;;;8.77;76.56;100038.81;2089337;28;46906;-51
2023/12/04 03:33:32;;;;;;;;;9.75;9.75;;;;;8.77;76.61;100037.03;2089690;28;46633;-54
2023/12/04 03:34:32;;;;;;;;;9.25;8.25;;;;;8.78;76.70;100043.19;2089302;28;46899;-51
2023/12/04 03:35:32;;;;;;;;;7.25;7.25;;;;;8.77;76.96;100041.47;2089126;28;46199;-54
2023/12/04 03:36:33;;;;;;;;;9.50;7.25;;;;;8.78;77.07;100040.56;2088969;28;46596;-51
2023/12/04 03:37:33;;;;;;;;;5.00;5.00;;;;;8.78;77.08;100036.13;2089482;28;46371;-53
2023/12/04 03:38:33;;;;;;;;;8.75;8.75;;;;;8.80;77.32;100044.03;2089349;28;46800;-54
2023/12/04 03:39:34;;;;;;;;;8.25;7.50;;;;;8.80;77.24;100038.72;2089309;28;46535;-52
2023/12/04 03:40:34;;;;;;;;;8.00;8.00;;;;;8.82;77.54;100042.22;2089732;28;45930;-50
2023/12/04 03:41:34;;;;;;;;;8.25;8.25;;;;;8.82;77.52;100029.84;2088933;28;46914;-52
2023/12/04 03:42:34;;;;;;;;;8.00;8.00;;;;;8.82;77.32;100023.69;2088814;28;46538;-49
2023/12/04 03:43:35;;;;;;;;;5.75;5.75;;;;;8.83;77.48;100026.28;2089100;28;46343;-51
2023/12/04 03:44:35;;;;;;;;;6.75;6.75;;;;;8.84;77.67;100029.81;2084516;28;47376;-52
2023/12/04 03:45:35;;;;;;;;;9.00;9.00;;;;;8.84;77.75;100022.72;2088209;28;46227;-54
2023/12/04 03:46:36;;;;;;;;;9.00;8.00;;;;;8.85;77.48;100034.19;2088943;28;46387;-53
2023/12/04 03:47:36;;;;;;;;;7.50;7.25;;;;;8.85;77.92;100028.88;2089254;28;46253;-51
2023/12/04 03:48:36;;;;;;;;;9.50;8.75;;;;;8.85;77.47;100031.53;2088871;28;46270;-50
2023/12/04 03:49:37;;;;;;;;;4.50;4.00;;;;;8.85;77.55;100026.25;2085788;28;46299;-51
2023/12/04 03:50:37;;;;;;;;;5.75;5.75;;;;;8.84;77.45;100028.03;2084024;28;46148;-53
2023/12/04 03:51:37;;;;;;;;;9.25;9.00;;;;;8.85;77.26;100032.41;2087530;28;46635;-52
2023/12/04 03:52:38;;;;;;;;;8.25;8.25;;;;;8.86;77.34;100033.28;2085311;28;46387;-53
2023/12/04 03:53:38;;;;;;;;;9.33;8.67;;;;;8.85;77.24;100029.75;2088585;28;46869;-51
2023/12/04 03:54:38;;;;;;;;;6.00;6.00;;;;;8.86;77.22;100030.63;2087822;28;46626;-49
2023/12/04 03:55:38;;;;;;;;;6.00;6.00;;;;;8.85;77.06;100023.59;2089034;28;46764;-49
2023/12/04 03:56:39;;;;;;;;;9.00;9.00;;;;;8.83;77.26;100026.28;2089067;28;46234;-50
2023/12/04 03:57:39;;;;;;;;;6.00;6.00;;;;;8.82;77.44;100027.19;2089631;28;46533;-53
2023/12/04 03:58:40;;;;;;;;;9.75;7.00;;;;;8.82;77.66;100027.19;2086908;28;46861;-50
2023/12/04 03:59:40;;;;;;;;;9.00;8.00;;;;;8.82;77.96;100024.56;2089832;28;46794;-51
2023/12/04 04:00:41;;;;;;;;;9.00;8.50;;;;;8.82;77.95;100021.03;2088925;28;46682;-48
2023/12/04 04:01:41;;;;;;;;;7.00;7.00;;;;;8.82;78.41;100029.84;2084456;28;46508;-48
2023/12/04 04:02:43;;;;;;;;;7.25;6.00;;;;;8.82;78.54;100026.34;2089007;28;46644;-49
2023/12/04 04:03:45;;;;;;;;;6.00;6.00;;;;;8.83;78.90;100022.78;2088739;28;45724;-51
2023/12/04 04:04:46;;;;;;;;;10.00;5.60;;;;;8.82;79.08;100027.19;2088416;28;46883;-51
2023/12/04 04:05:46;;;;;;;;;9.75;9.25;;;;;8.82;79.10;100016.63;2088899;28;46522;-49
2023/12/04 04:06:46;;;;;;;;;6.75;6.75;;;;;8.82;79.27;100023.69;2088755;28;46389;-51
2023/12/04 04:07:47;;;;;;;;;10.00;7.50;;;;;8.81;79.46;100028.13;2088948;28;46221;-52
2023/12/04 04:08:47;;;;;;;;;6.25;6.25;;;;;8.81;79.89;100025.47;2089491;28;46789;-53
2023/12/04 04:09:47;;;;;;;;;7.50;6.00;;;;;8.81;80.38;100022.81;2089099;28;46548;-52
2023/12/04 04:10:48;;;;;;;;;4.50;4.50;;;;;8.81;80.67;100024.59;2088874;28;46648;-54
2023/12/04 04:11:48;;;;;;;;;6.00;6.00;;;;;8.80;80.69;100020.22;2088642;28;46354;-49
2023/12/04 04:12:49;;;;;;;;;6.50;6.50;;;;;8.80;80.88;100023.72;2089202;28;45533;-51
2023/12/04 04:13:49;;;;;;;;;8.50;6.00;;;;;8.80;81.43;100029.03;2087520;28;46012;-53
2023/12/04 04:14:49;;;;;;;;;6.00;6.00;;;;;8.80;81.91;100025.50;2090083;28;47167;-48
2023/12/04 04:15:50;;;;;;;;;3.50;3.25;;;;;8.80;82.22;100029.03;2089066;28;46595;-52
2023/12/04 04:16:51;;;;;;;;;8.25;7.75;;;;;8.80;82.57;100025.50;2088892;28;46626;-53
2023/12/04 04:17:51;;;;;;;;;8.50;7.75;;;;;8.78;83.18;100027.31;2089363;28;46144;-52
2023/12/04 04:18:52;;;;;;;;;8.00;8.00;;;;;8.78;83.54;100027.31;2086213;28;46938;-51
2023/12/04 04:19:53;;;;;;;;;9.75;9.75;;;;;8.80;84.13;100025.50;2085560;28;46872;-49
2023/12/04 04:20:53;;;;;;;;;8.25;8.00;;;;;8.77;84.35;100021.16;2088436;28;46466;-51
2023/12/04 04:21:53;;;;;;;;;8.50;6.25;;;;;8.78;85.21;100022.03;2088026;28;46209;-53
2023/12/04 04:22:54;;;;;;;;;10.50;7.00;;;;;8.76;85.28;100016.75;2088625;28;46547;-50
2023/12/04 04:23:54;;;;;;;;;5.33;5.33;;;;;8.76;86.06;100018.53;2087114;28;46524;-53
2023/12/04 04:24:54;;;;;;;;;8.50;8.25;;;;;8.76;86.80;100010.59;2085128;28;46341;-54
2023/12/04 04:25:55;;;;;;;;;6.00;6.00;;;;;8.75;87.43;100011.50;2085292;28;46218;-50
2023/12/04 04:26:55;;;;;;;;;6.75;6.75;;;;;8.74;87.83;100007.13;2085259;28;46583;-50
2023/12/04 04:27:55;;;;;;;;;7.75;7.75;;;;;8.73;88.61;100005.41;2082823;28;46268;-50
2023/12/04 04:28:56;;;;;;;;;6.00;6.00;;;;;8.72;89.15;99999.22;2088145;28;46706;-52
2023/12/04 04:29:56;;;;;;;;;9.25;8.75;;;;;8.71;89.52;99997.50;2088296;28;46444;-55
2023/12/04 04:30:56;;;;;;;;;8.75;8.75;;;;;8.71;90.02;99997.50;2081572;28;46797;-50
2023/12/04 04:31:56;;;;;;;;;6.33;5.33;;;;;8.72;90.67;99993.06;2088306;28;46734;-52
2023/12/04 04:32:57;;;;;;;;;7.00;6.00;;;;;8.71;91.13;99994.84;2088016;28;47158;-52
2023/12/04 04:33:57;;;;;;;;;7.75;6.50;;;;;8.69;91.78;99993.16;2089155;28;46667;-51
2023/12/04 04:34:57;;;;;;;;;7.33;6.33;;;;;8.68;92.14;99987.00;2088757;28;46201;-51
2023/12/04 04:35:58;;;;;;;;;10.75;9.00;;;;;8.69;92.08;99980.81;2088754;28;46374;-52
2023/12/04 04:36:58;;;;;;;;;7.50;5.50;;;;;8.69;92.71;99982.59;2081363;28;46277;-53
2023/12/04 04:37:59;;;;;;;;;6.00;6.00;;;;;8.68;92.60;99988.78;2083892;28;46466;-50
2023/12/04 04:38:59;;;;;;;;;5.75;5.00;;;;;8.67;93.33;99985.28;2088835;28;46381;-49
2023/12/04 04:39:59;;;;;;;;;9.67;7.33;;;;;8.67;93.60;99981.75;2088537;28;45632;-51
2023/12/04 04:40:59;;;;;;;;;7.50;7.00;;;;;8.65;94.31;99983.56;2083205;28;46582;-51
2023/12/04 04:42:00;;;;;;;;;6.25;6.25;;;;;8.66;94.90;99982.66;2089012;28;46189;-53
2023/12/04 04:43:00;;;;;;;;;11.25;9.50;;;;;8.65;95.29;99981.81;2088815;28;46405;-52
2023/12/04 04:44:00;;;;;;;;;10.25;7.25;;;;;8.65;95.85;99975.66;2088908;28;46662;-51
2023/12/04 04:45:01;;;;;;;;;8.50;8.25;;;;;8.64;96.59;99968.59;2088629;28;46472;-53